Sea Jet — WDD2601 — position and weather

sailwx.info

Track history (hours):
 
Tides and Currents Weather Stations Pressure Air Temp Water Temp Dewpoint Dewpoint Depression Visibility Wind Speed Wind Dir Waves Ship Positions

Sea Jet

Owner: Cross Sound Ferry Services, Inc., New London, CT. More information available from US FCC via Universal Licensing System and Coast Guard Vessel Documentation Center.

Last reported at 2015-Apr-27 01:14 UTC. Time now 2015-Apr-28 16:01 UTC.
Position N 41°23' W 072°06'.

Length 33 m.

Type: High speed craft. MMSI: 367117430.

Date/timePositionNaut miles runAvg speedWind from/ knotsBaromVisibWave heightAir tempDewpointWater temp
2015-Apr-27 01:14N 41°23' W 072°06'2 3.7
2015-Apr-27 00:33N 41°20' W 072°05'1110.7
2015-Apr-26 23:34N 41°11' W 072°13'1110.7
2015-Apr-26 22:33N 41°20' W 072°05'1010.1
2015-Apr-26 21:34N 41°12' W 072°13'1110.8
2015-Apr-26 20:33N 41°21' W 072°06'2 0.3
2015-Apr-26 14:34N 41°20' W 072°05'10 9.8
2015-Apr-26 13:34N 41°12' W 072°13'1010.2
2015-Apr-26 12:34N 41°20' W 072°05'9 9.1
2015-Apr-26 11:34N 41°12' W 072°12'1010.1
2015-Apr-26 10:33N 41°21' W 072°06'1 0.1
2015-Apr-26 00:33N 41°21' W 072°05'10 9.7
2015-Apr-25 23:34N 41°12' W 072°12'9 9.4
2015-Apr-25 22:34N 41°20' W 072°05'9 8.8
2015-Apr-25 21:34N 41°13' W 072°12'10 9.6
2015-Apr-25 20:33N 41°21' W 072°06'0 0.0
2015-Apr-25 19:33N 41°21' W 072°06'0 0.0
2015-Apr-25 18:33N 41°21' W 072°06'0 0.0
2015-Apr-25 17:33N 41°21' W 072°06'0 0.0
2015-Apr-25 16:33N 41°21' W 072°06'0 0.0
2015-Apr-25 15:33N 41°21' W 072°06'2 1.7
2015-Apr-25 14:34N 41°20' W 072°05'8 8.1
2015-Apr-25 13:34N 41°13' W 072°11'8 7.9
2015-Apr-25 12:34N 41°20' W 072°05'7 7.5
2015-Apr-25 11:34N 41°13' W 072°10'9 8.9
2015-Apr-25 10:34N 41°21' W 072°06'2 0.2
2015-Apr-25 00:34N 41°19' W 072°05'9 8.7
2015-Apr-24 23:34N 41°12' W 072°11'9 9.1
2015-Apr-24 22:34N 41°20' W 072°05'9 9.3
2015-Apr-24 21:34N 41°12' W 072°12'1010.3
2015-Apr-24 20:33N 41°21' W 072°06'0 0.0
2015-Apr-24 19:33N 41°21' W 072°06'0 0.0
2015-Apr-24 18:33N 41°21' W 072°06'0 0.0
2015-Apr-24 17:33N 41°21' W 072°06'0 0.0
2015-Apr-24 16:33N 41°21' W 072°06'0 0.0
2015-Apr-24 15:34N 41°21' W 072°06'2 2.2
2015-Apr-24 14:34N 41°19' W 072°05'8 8.2
2015-Apr-24 13:34N 41°13' W 072°11'8 8.4
2015-Apr-24 12:34N 41°19' W 072°05'8 8.2
2015-Apr-24 11:34N 41°13' W 072°11'10 9.6
2015-Apr-24 10:33N 41°21' W 072°06'  
2015-Apr-20 00:33N 41°20' W 072°05'9 8.8
2015-Apr-19 23:34N 41°13' W 072°11'9 8.5
2015-Apr-19 22:34N 41°20' W 072°05'9 9.2
2015-Apr-19 21:34N 41°13' W 072°12'1010.0
2015-Apr-19 20:33N 41°21' W 072°06'0 0.0
2015-Apr-19 19:33N 41°21' W 072°06'0 0.0
2015-Apr-19 18:33N 41°21' W 072°06'0 0.0
2015-Apr-19 17:33N 41°21' W 072°06'0 0.0
2015-Apr-19 16:33N 41°21' W 072°06'0 0.0
2015-Apr-19 15:33N 41°21' W 072°06'2 2.0
2015-Apr-19 14:34N 41°19' W 072°05'7 7.4
2015-Apr-19 13:34N 41°14' W 072°11'4 3.7
2015-Apr-19 12:34N 41°16' W 072°07'5 5.0
2015-Apr-19 11:34N 41°12' W 072°12'1010.1
2015-Apr-19 10:33N 41°21' W 072°06'1 0.1
2015-Apr-19 00:34N 41°20' W 072°05'1110.6
2015-Apr-18 23:34N 41°12' W 072°14'1110.8
2015-Apr-18 22:33N 41°20' W 072°05'8 7.8
2015-Apr-18 21:34N 41°14' W 072°10'8 8.5
2015-Apr-18 20:33N 41°21' W 072°06'0 0.0
2015-Apr-18 19:34N 41°21' W 072°06'0 0.0
2015-Apr-18 18:33N 41°21' W 072°06'0 0.0
2015-Apr-18 17:33N 41°21' W 072°06'0 0.0
2015-Apr-18 16:33N 41°21' W 072°06'0 0.0
2015-Apr-18 15:34N 41°21' W 072°06'3 2.7
2015-Apr-18 14:34N 41°19' W 072°05'8 8.1
2015-Apr-18 13:34N 41°13' W 072°12'9 8.9
2015-Apr-18 12:34N 41°20' W 072°05'8 7.7
2015-Apr-18 11:34N 41°13' W 072°11'9 8.9
2015-Apr-18 10:33N 41°21' W 072°06'1 0.1
2015-Apr-18 00:34N 41°20' W 072°05'10 9.6
2015-Apr-17 23:33N 41°12' W 072°13'10 9.7
2015-Apr-17 22:34N 41°20' W 072°05'8 7.5
2015-Apr-17 21:34N 41°14' W 072°10'8 8.3
2015-Apr-17 20:33N 41°21' W 072°06'0 0.0
2015-Apr-17 19:33N 41°21' W 072°06'0 0.0
2015-Apr-17 18:33N 41°21' W 072°06'0 0.0
2015-Apr-17 17:33N 41°21' W 072°06'0 0.0
2015-Apr-17 16:33N 41°21' W 072°06'0 0.0
2015-Apr-17 15:33N 41°21' W 072°06'3 2.6
2015-Apr-17 14:34N 41°19' W 072°05'7 7.1
2015-Apr-17 13:34N 41°14' W 072°11'7 7.2
2015-Apr-17 12:34N 41°19' W 072°05'6 6.2
2015-Apr-17 11:33N 41°14' W 072°10'8 8.0
2015-Apr-17 10:33N 41°21' W 072°06'  
Track history (hours):
 
Tides and Currents Weather Stations Pressure Air Temp Water Temp Dewpoint Dewpoint Depression Visibility Wind Speed Wind Dir Waves Ship Positions

Sea Jet

Owner: Cross Sound Ferry Services, Inc., New London, CT. More information available from US FCC via Universal Licensing System and Coast Guard Vessel Documentation Center.

Last reported at 2015-Apr-27 01:14 UTC. Time now 2015-Apr-28 16:01 UTC.
Position N 41°23' W 072°06'.

Length 33 m.

Type: High speed craft. MMSI: 367117430.

Date/timePositionNaut miles runAvg speedWind from/ knotsBaromVisibWave heightAir tempDewpointWater temp
2015-Apr-27 01:14N 41°23' W 072°06'2 3.7
2015-Apr-27 00:33N 41°20' W 072°05'1110.7
2015-Apr-26 23:34N 41°11' W 072°13'1110.7
2015-Apr-26 22:33N 41°20' W 072°05'1010.1
2015-Apr-26 21:34N 41°12' W 072°13'1110.8
2015-Apr-26 20:33N 41°21' W 072°06'2 0.3
2015-Apr-26 14:34N 41°20' W 072°05'10 9.8
2015-Apr-26 13:34N 41°12' W 072°13'1010.2
2015-Apr-26 12:34N 41°20' W 072°05'9 9.1
2015-Apr-26 11:34N 41°12' W 072°12'1010.1
2015-Apr-26 10:33N 41°21' W 072°06'1 0.1
2015-Apr-26 00:33N 41°21' W 072°05'10 9.7
2015-Apr-25 23:34N 41°12' W 072°12'9 9.4
2015-Apr-25 22:34N 41°20' W 072°05'9 8.8
2015-Apr-25 21:34N 41°13' W 072°12'10 9.6
2015-Apr-25 20:33N 41°21' W 072°06'0 0.0
2015-Apr-25 19:33N 41°21' W 072°06'0 0.0
2015-Apr-25 18:33N 41°21' W 072°06'0 0.0
2015-Apr-25 17:33N 41°21' W 072°06'0 0.0
2015-Apr-25 16:33N 41°21' W 072°06'0 0.0
2015-Apr-25 15:33N 41°21' W 072°06'2 1.7
2015-Apr-25 14:34N 41°20' W 072°05'8 8.1
2015-Apr-25 13:34N 41°13' W 072°11'8 7.9
2015-Apr-25 12:34N 41°20' W 072°05'7 7.5
2015-Apr-25 11:34N 41°13' W 072°10'9 8.9
2015-Apr-25 10:34N 41°21' W 072°06'2 0.2
2015-Apr-25 00:34N 41°19' W 072°05'9 8.7
2015-Apr-24 23:34N 41°12' W 072°11'9 9.1
2015-Apr-24 22:34N 41°20' W 072°05'9 9.3
2015-Apr-24 21:34N 41°12' W 072°12'1010.3
2015-Apr-24 20:33N 41°21' W 072°06'0 0.0
2015-Apr-24 19:33N 41°21' W 072°06'0 0.0
2015-Apr-24 18:33N 41°21' W 072°06'0 0.0
2015-Apr-24 17:33N 41°21' W 072°06'0 0.0
2015-Apr-24 16:33N 41°21' W 072°06'0 0.0
2015-Apr-24 15:34N 41°21' W 072°06'2 2.2
2015-Apr-24 14:34N 41°19' W 072°05'8 8.2
2015-Apr-24 13:34N 41°13' W 072°11'8 8.4
2015-Apr-24 12:34N 41°19' W 072°05'8 8.2
2015-Apr-24 11:34N 41°13' W 072°11'10 9.6
2015-Apr-24 10:33N 41°21' W 072°06'  
2015-Apr-20 00:33N 41°20' W 072°05'9 8.8
2015-Apr-19 23:34N 41°13' W 072°11'9 8.5
2015-Apr-19 22:34N 41°20' W 072°05'9 9.2
2015-Apr-19 21:34N 41°13' W 072°12'1010.0
2015-Apr-19 20:33N 41°21' W 072°06'0 0.0
2015-Apr-19 19:33N 41°21' W 072°06'0 0.0
2015-Apr-19 18:33N 41°21' W 072°06'0 0.0
2015-Apr-19 17:33N 41°21' W 072°06'0 0.0
2015-Apr-19 16:33N 41°21' W 072°06'0 0.0
2015-Apr-19 15:33N 41°21' W 072°06'2 2.0
2015-Apr-19 14:34N 41°19' W 072°05'7 7.4
2015-Apr-19 13:34N 41°14' W 072°11'4 3.7
2015-Apr-19 12:34N 41°16' W 072°07'5 5.0
2015-Apr-19 11:34N 41°12' W 072°12'1010.1
2015-Apr-19 10:33N 41°21' W 072°06'1 0.1
2015-Apr-19 00:34N 41°20' W 072°05'1110.6
2015-Apr-18 23:34N 41°12' W 072°14'1110.8
2015-Apr-18 22:33N 41°20' W 072°05'8 7.8
2015-Apr-18 21:34N 41°14' W 072°10'8 8.5
2015-Apr-18 20:33N 41°21' W 072°06'0 0.0
2015-Apr-18 19:34N 41°21' W 072°06'0 0.0
2015-Apr-18 18:33N 41°21' W 072°06'0 0.0
2015-Apr-18 17:33N 41°21' W 072°06'0 0.0
2015-Apr-18 16:33N 41°21' W 072°06'0 0.0
2015-Apr-18 15:34N 41°21' W 072°06'3 2.7
2015-Apr-18 14:34N 41°19' W 072°05'8 8.1
2015-Apr-18 13:34N 41°13' W 072°12'9 8.9
2015-Apr-18 12:34N 41°20' W 072°05'8 7.7
2015-Apr-18 11:34N 41°13' W 072°11'9 8.9
2015-Apr-18 10:33N 41°21' W 072°06'1 0.1
2015-Apr-18 00:34N 41°20' W 072°05'10 9.6
2015-Apr-17 23:33N 41°12' W 072°13'10 9.7
2015-Apr-17 22:34N 41°20' W 072°05'8 7.5
2015-Apr-17 21:34N 41°14' W 072°10'8 8.3
2015-Apr-17 20:33N 41°21' W 072°06'0 0.0
2015-Apr-17 19:33N 41°21' W 072°06'0 0.0
2015-Apr-17 18:33N 41°21' W 072°06'0 0.0
2015-Apr-17 17:33N 41°21' W 072°06'0 0.0
2015-Apr-17 16:33N 41°21' W 072°06'0 0.0
2015-Apr-17 15:33N 41°21' W 072°06'3 2.6
2015-Apr-17 14:34N 41°19' W 072°05'7 7.1
2015-Apr-17 13:34N 41°14' W 072°11'7 7.2
2015-Apr-17 12:34N 41°19' W 072°05'6 6.2
2015-Apr-17 11:33N 41°14' W 072°10'8 8.0
2015-Apr-17 10:33N 41°21' W 072°06'  

Dump ship's entire track history